Time;durP1;ratioP1;P1;durP2;ratioP2;P2;SDS_P1;SDS_P2;PMS_P1;PMS_P2;Temp;Humidity;BMP_temperature;BMP_pressure;BME280_temperature;BME280_humidity;BME280_pressure;Samples;Min_cycle;Max_cycle;Signal;HPM_P1;HPM_P2
2022/11/02 00:00:54;;;;;;;7.72;1.23;;;12.30;99.90;;;;;;4874212;29;20044;-84
2022/11/02 00:03:20;;;;;;;9.18;1.00;;;12.30;99.90;;;;;;4877766;29;20040;-85
2022/11/02 00:05:46;;;;;;;8.77;1.65;;;12.30;99.90;;;;;;4888045;29;20040;-83
2022/11/02 00:08:11;;;;;;;6.03;0.73;;;12.30;99.90;;;;;;4890858;29;20094;-85
2022/11/02 00:10:37;;;;;;;4.85;1.35;;;12.30;99.90;;;;;;4877731;29;20044;-84
2022/11/02 00:13:02;;;;;;;6.82;0.90;;;12.20;99.90;;;;;;4876598;29;20102;-84
2022/11/02 00:15:31;;;;;;;6.72;0.90;;;12.20;99.90;;;;;;4891541;29;20072;-84
2022/11/02 00:18:08;;;;;;;4.25;0.80;;;12.20;99.90;;;;;;4875963;29;20060;-84
2022/11/02 00:20:37;;;;;;;7.32;1.25;;;12.20;99.90;;;;;;4890234;29;20036;-84
2022/11/02 00:23:06;;;;;;;4.60;0.70;;;12.20;99.90;;;;;;4875248;29;20043;-84
2022/11/02 00:25:32;;;;;;;6.07;0.95;;;12.20;99.90;;;;;;4872806;29;20036;-85
2022/11/02 00:27:58;;;;;;;8.50;0.90;;;12.20;99.90;;;;;;4873272;29;20099;-84
2022/11/02 00:30:23;;;;;;;5.60;0.93;;;12.20;99.90;;;;;;4873385;29;20032;-84
2022/11/02 00:32:50;;;;;;;6.68;0.82;;;12.20;99.90;;;;;;4873887;29;20083;-84
2022/11/02 00:35:15;;;;;;;8.60;0.88;;;12.20;99.90;;;;;;4885306;29;20037;-84
2022/11/02 00:37:41;;;;;;;4.10;0.85;;;12.20;99.90;;;;;;4889716;29;20047;-84
2022/11/02 00:40:07;;;;;;;6.85;0.90;;;12.20;99.90;;;;;;4891067;29;20040;-85
2022/11/02 00:42:32;;;;;;;3.97;0.70;;;12.10;99.90;;;;;;4874294;29;20059;-84
2022/11/02 00:44:58;;;;;;;7.32;0.90;;;12.20;99.90;;;;;;4875001;29;20402;-84
2022/11/02 00:47:23;;;;;;;7.03;0.55;;;12.10;99.90;;;;;;4875283;29;20039;-83
2022/11/02 00:49:49;;;;;;;6.15;0.82;;;12.10;99.90;;;;;;4890568;29;20087;-84
2022/11/02 00:52:14;;;;;;;2.42;0.50;;;12.00;99.90;;;;;;4880406;29;20131;-83
2022/11/02 00:54:40;;;;;;;5.43;0.40;;;11.90;99.90;;;;;;4896394;29;20316;-83
2022/11/02 00:57:05;;;;;;;6.45;0.73;;;11.80;99.90;;;;;;4877906;29;20044;-83
2022/11/02 00:59:31;;;;;;;8.85;0.47;;;11.70;99.90;;;;;;4879905;29;20036;-85
2022/11/02 01:01:57;;;;;;;3.35;0.35;;;11.60;99.90;;;;;;4875670;29;20036;-83
2022/11/02 01:04:22;;;;;;;2.47;0.40;;;11.50;99.90;;;;;;4888873;29;20096;-83
2022/11/02 01:06:48;;;;;;;3.67;0.30;;;11.60;99.90;;;;;;4876342;29;20238;-83
2022/11/02 01:09:15;;;;;;;6.47;0.57;;;11.50;99.90;;;;;;4876780;29;20036;-83
2022/11/02 01:11:41;;;;;;;3.70;0.30;;;11.50;99.90;;;;;;4890439;29;20115;-83
2022/11/02 01:14:08;;;;;;;1.77;0.40;;;11.40;99.90;;;;;;4904167;29;20051;-84
2022/11/02 01:16:33;;;;;;;2.78;0.40;;;11.50;99.90;;;;;;4889720;29;20097;-83
2022/11/02 01:18:59;;;;;;;2.75;0.35;;;11.40;99.90;;;;;;4878610;29;20036;-83
2022/11/02 01:21:25;;;;;;;1.92;0.60;;;11.40;99.90;;;;;;4877462;29;20032;-83
2022/11/02 01:23:51;;;;;;;3.75;0.40;;;11.40;99.90;;;;;;4892771;29;20045;-84
2022/11/02 01:26:17;;;;;;;6.65;0.73;;;11.40;99.90;;;;;;4890110;29;20036;-83
2022/11/02 01:28:43;;;;;;;7.28;0.98;;;11.40;99.90;;;;;;4873100;29;20095;-83
2022/11/02 01:31:10;;;;;;;6.55;1.20;;;11.40;99.90;;;;;;4878729;29;20048;-84
2022/11/02 01:33:35;;;;;;;5.93;1.20;;;11.50;99.90;;;;;;4877108;29;20052;-84
2022/11/02 01:36:03;;;;;;;6.82;1.27;;;11.50;99.90;;;;;;4880839;29;20064;-84
2022/11/02 01:38:30;;;;;;;9.55;2.08;;;11.40;99.90;;;;;;4876405;29;20040;-84
2022/11/02 01:40:55;;;;;;;6.97;1.42;;;11.50;99.90;;;;;;4876071;29;20064;-84
2022/11/02 01:43:22;;;;;;;10.68;1.45;;;11.50;99.90;;;;;;4892240;29;20040;-84
2022/11/02 01:45:58;;;;;;;9.60;1.60;;;11.50;99.90;;;;;;4895195;29;20123;-84
2022/11/02 01:48:38;;;;;;;9.15;1.50;;;11.60;99.90;;;;;;4909649;29;20055;-84
2022/11/02 01:51:09;;;;;;;10.93;1.80;;;11.60;99.90;;;;;;4878582;29;20047;-84
2022/11/02 01:53:38;;;;;;;17.45;2.80;;;11.50;99.90;;;;;;4897432;29;20040;-84
2022/11/02 01:56:05;;;;;;;9.68;1.50;;;11.60;99.90;;;;;;4879286;29;20067;-84
2022/11/02 01:58:33;;;;;;;11.68;2.10;;;11.60;99.90;;;;;;4882374;29;20040;-84
2022/11/02 02:00:59;;;;;;;11.20;2.53;;;11.50;99.90;;;;;;4891121;29;20099;-84
2022/11/02 02:03:26;;;;;;;12.18;2.28;;;11.60;99.90;;;;;;4893512;29;20044;-83
2022/11/02 02:06:11;;;;;;;12.00;3.00;;;11.60;99.90;;;;;;4895314;29;20432;-84
2022/11/02 02:08:42;;;;;;;11.35;1.67;;;11.70;99.90;;;;;;4877387;29;20052;-83
2022/11/02 02:11:26;;;;;;;11.07;1.98;;;11.70;99.90;;;;;;4896710;29;20040;-85
2022/11/02 02:14:06;;;;;;;11.02;1.95;;;11.70;99.90;;;;;;4898299;29;20044;-85
2022/11/02 02:16:39;;;;;;;9.18;2.30;;;11.70;99.90;;;;;;4896424;29;20040;-84
2022/11/02 02:19:56;;;;;;;11.88;1.90;;;11.70;99.90;;;;;;4893274;29;20051;-83
2022/11/02 02:22:31;;;;;;;13.30;1.85;;;11.70;99.90;;;;;;4842177;29;20659;-84
2022/11/02 02:25:32;;;;;;;6.60;1.55;;;11.70;99.90;;;;;;4892998;29;20040;-84
2022/11/02 02:28:18;;;;;;;8.60;1.42;;;11.80;99.90;;;;;;4892710;29;20143;-84
2022/11/02 02:31:04;;;;;;;6.65;1.38;;;11.80;99.90;;;;;;4893482;29;20043;-84
2022/11/02 02:33:41;;;;;;;8.60;1.35;;;11.70;99.90;;;;;;4856382;29;20159;-84
2022/11/02 02:36:15;;;;;;;5.05;0.75;;;11.80;99.90;;;;;;4890817;29;20056;-84
2022/11/02 02:39:14;;;;;;;8.15;0.90;;;11.70;99.90;;;;;;4892439;29;20048;-84
2022/11/02 02:41:45;;;;;;;7.18;1.45;;;11.70;99.90;;;;;;4877334;29;20527;-84
2022/11/02 02:44:15;;;;;;;3.22;0.40;;;11.70;99.90;;;;;;4879476;29;20040;-84
2022/11/02 02:46:58;;;;;;;2.05;0.40;;;11.60;99.90;;;;;;4905197;29;20131;-83
2022/11/02 02:49:56;;;;;;;6.00;0.32;;;11.60;99.90;;;;;;4878286;29;20032;-84
2022/11/02 02:52:25;;;;;;;2.25;0.30;;;11.60;99.90;;;;;;4906403;29;20040;-84
2022/11/02 02:54:54;;;;;;;2.55;0.30;;;11.50;99.90;;;;;;4891741;29;20103;-84
2022/11/02 02:57:22;;;;;;;4.47;0.70;;;11.50;99.90;;;;;;4877965;29;20046;-84
2022/11/02 02:59:48;;;;;;;4.13;1.20;;;11.50;99.90;;;;;;4891711;29;20582;-84
2022/11/02 03:02:41;;;;;;;3.58;0.77;;;11.50;99.90;;;;;;4887514;29;20063;-84
2022/11/02 03:05:24;;;;;;;3.45;0.40;;;11.50;99.90;;;;;;4885402;29;20036;-84
2022/11/02 03:07:49;;;;;;;4.70;0.75;;;11.40;99.90;;;;;;4876321;29;20047;-84
2022/11/02 03:10:22;;;;;;;4.13;0.60;;;11.40;99.90;;;;;;4876672;29;20036;-83
2022/11/02 03:13:22;;;;;;;7.22;0.70;;;11.30;99.90;;;;;;4883557;29;20702;-84
2022/11/02 03:15:54;;;;;;;6.53;0.90;;;11.30;99.90;;;;;;4891095;29;20543;-84
2022/11/02 03:18:20;;;;;;;7.03;1.67;;;11.30;99.90;;;;;;4905532;29;20982;-83
2022/11/02 03:21:13;;;;;;;6.65;0.63;;;11.30;99.90;;;;;;4889106;29;20069;-83
2022/11/02 03:23:43;;;;;;;5.13;0.90;;;11.30;99.90;;;;;;4890774;29;20048;-84
2022/11/02 03:26:26;;;;;;;7.20;1.40;;;11.20;99.90;;;;;;4879072;29;20495;-84
2022/11/02 03:29:07;;;;;;;4.35;0.70;;;11.20;99.90;;;;;;4890420;29;20059;-84
2022/11/02 03:31:53;;;;;;;8.15;1.00;;;11.10;99.90;;;;;;4890952;29;20131;-83
2022/11/02 03:34:42;;;;;;;5.80;0.60;;;11.20;99.90;;;;;;4893970;29;20699;-84
2022/11/02 03:37:32;;;;;;;7.40;1.23;;;11.10;99.90;;;;;;4876996;29;20036;-83
2022/11/02 03:40:13;;;;;;;7.18;1.40;;;11.10;99.90;;;;;;4889974;29;20063;-83
2022/11/02 03:42:41;;;;;;;5.55;0.88;;;11.00;99.90;;;;;;4878560;29;20040;-84
2022/11/02 03:45:12;;;;;;;4.10;0.60;;;11.00;99.90;;;;;;4904988;29;20028;-83
2022/11/02 03:47:39;;;;;;;6.25;0.90;;;11.00;99.90;;;;;;4888357;29;20040;-84
2022/11/02 03:50:08;;;;;;;6.55;1.48;;;11.00;99.90;;;;;;4876858;29;20123;-83
2022/11/02 03:52:38;;;;;;;5.78;0.65;;;10.90;99.90;;;;;;4876285;29;20043;-83
2022/11/02 03:55:16;;;;;;;7.88;0.98;;;11.00;99.90;;;;;;4877728;29;20044;-84
2022/11/02 03:57:45;;;;;;;9.90;1.02;;;11.00;99.90;;;;;;4887665;29;20135;-84
2022/11/02 04:00:17;;;;;;;6.18;0.90;;;11.00;99.90;;;;;;4878103;29;20103;-83
2022/11/02 04:02:47;;;;;;;7.60;0.77;;;11.00;99.90;;;;;;4876493;29;20040;-83
2022/11/02 04:05:16;;;;;;;7.20;0.70;;;11.10;99.90;;;;;;4887815;29;20044;-84
2022/11/02 04:10:29;;;;;;;14.93;1.40;;;11.00;99.90;;;;;;4891898;29;20578;-85
2022/11/02 04:15:39;;;;;;;7.25;1.88;;;11.00;99.90;;;;;;4886323;29;20183;-84
2022/11/02 04:20:52;;;;;;;5.15;0.52;;;11.00;99.90;;;;;;4887388;29;20080;-84
2022/11/02 04:26:02;;;;;;;6.30;0.60;;;11.30;99.90;;;;;;4889123;29;20692;-84
2022/11/02 04:28:28;;;;;;;6.15;1.02;;;11.00;99.90;;;;;;4887774;29;20157;-84
2022/11/02 04:30:54;;;;;;;6.57;0.95;;;11.10;99.90;;;;;;4886734;29;20139;-84
2022/11/02 04:33:31;;;;;;;6.68;0.80;;;11.10;99.90;;;;;;4870579;29;20759;-84
2022/11/02 04:36:01;;;;;;;7.90;1.25;;;11.10;99.90;;;;;;4890538;29;20044;-84
2022/11/02 04:38:40;;;;;;;3.83;1.08;;;11.10;99.90;;;;;;4903345;29;20465;-83
2022/11/02 04:43:52;;;;;;;;;;;11.10;99.90;;;;;;4886110;29;20451;-84
2022/11/02 04:46:18;;;;;;;3.88;0.50;;;11.20;99.90;;;;;;4873463;29;19966;-84
2022/11/02 04:48:44;;;;;;;8.80;1.23;;;11.10;99.90;;;;;;4875799;29;20052;-84
2022/11/02 04:51:09;;;;;;;7.68;1.00;;;11.30;99.90;;;;;;4890389;29;20137;-84
2022/11/02 04:53:35;;;;;;;8.05;1.67;;;11.20;99.90;;;;;;4875133;29;20054;-83
2022/11/02 04:56:01;;;;;;;4.90;0.73;;;11.20;99.90;;;;;;4886051;29;20044;-83
2022/11/02 04:58:27;;;;;;;7.28;1.25;;;11.20;99.90;;;;;;4885935;29;20563;-84
2022/11/02 05:00:52;;;;;;;14.50;1.38;;;11.10;99.90;;;;;;4886342;29;20124;-85
2022/11/02 05:03:18;;;;;;;6.85;1.13;;;11.20;99.90;;;;;;4874496;29;20483;-83
2022/11/02 05:05:43;;;;;;;11.13;1.45;;;11.20;99.90;;;;;;4885672;29;20044;-84
2022/11/02 05:08:09;;;;;;;8.45;1.20;;;11.20;99.90;;;;;;4891369;29;20048;-83
2022/11/02 05:10:35;;;;;;;9.88;2.22;;;11.10;99.90;;;;;;4887049;29;20093;-84
2022/11/02 05:13:00;;;;;;;7.75;1.33;;;11.10;99.90;;;;;;4891837;29;20036;-83
2022/11/02 05:33:53;;;;;;;12.35;2.58;;;11.10;99.90;;;;;;4921210;29;20086;-91
2022/11/02 05:36:19;;;;;;;12.65;1.58;;;11.20;99.90;;;;;;4869686;29;20102;-85
2022/11/02 05:39:38;;;;;;;8.70;1.58;;;11.20;99.90;;;;;;4893037;29;20208;-87
2022/11/02 05:42:04;;;;;;;9.05;1.20;;;11.10;99.90;;;;;;4900582;29;20098;-88
2022/11/02 05:44:30;;;;;;;9.70;2.17;;;11.20;99.90;;;;;;4894098;29;20514;-89
2022/11/02 05:46:55;;;;;;;10.77;1.48;;;11.20;99.90;;;;;;4904600;29;20130;-87
2022/11/02 05:49:23;;;;;;;7.35;1.40;;;11.20;99.90;;;;;;4884678;29;20069;-88
2022/11/02 05:51:49;;;;;;;11.23;1.50;;;11.10;99.90;;;;;;4884958;29;20055;-89
2022/11/02 05:54:14;;;;;;;10.75;1.40;;;11.10;99.90;;;;;;4903053;29;20042;-88
2022/11/02 05:56:40;;;;;;;11.02;1.65;;;11.30;99.90;;;;;;4896457;29;20044;-87
2022/11/02 05:59:05;;;;;;;9.25;1.85;;;11.20;99.90;;;;;;4906338;29;20042;-87
2022/11/02 06:01:31;;;;;;;13.10;2.42;;;11.10;99.90;;;;;;4920280;29;20180;-87
2022/11/02 06:03:57;;;;;;;12.25;2.03;;;11.10;99.90;;;;;;4884888;29;20094;-86
2022/11/02 06:06:22;;;;;;;10.40;2.13;;;11.50;99.90;;;;;;4882619;29;20064;-86
2022/11/02 06:08:49;;;;;;;11.57;1.63;;;11.10;99.90;;;;;;4878711;29;20052;-86
2022/11/02 06:11:15;;;;;;;10.07;2.03;;;11.10;99.90;;;;;;4883447;29;20102;-87
2022/11/02 06:13:41;;;;;;;11.35;1.95;;;11.10;99.90;;;;;;4900146;29;20119;-87
2022/11/02 06:16:14;;;;;;;9.50;2.28;;;11.00;99.90;;;;;;4883418;29;20196;-88
2022/11/02 06:18:40;;;;;;;8.63;1.92;;;11.00;99.90;;;;;;4867968;29;20392;-86
2022/11/02 06:21:06;;;;;;;9.13;1.92;;;11.00;99.90;;;;;;4904694;29;20032;-86
2022/11/02 06:23:32;;;;;;;13.07;2.42;;;11.00;99.90;;;;;;4884239;29;20255;-87
2022/11/02 06:25:59;;;;;;;12.88;2.50;;;11.00;99.90;;;;;;4881803;29;20507;-86
2022/11/02 06:28:26;;;;;;;14.93;2.72;;;11.00;99.90;;;;;;4882608;29;20037;-87
2022/11/02 06:30:52;;;;;;;9.50;1.60;;;11.00;99.90;;;;;;4898078;29;20129;-87
2022/11/02 06:33:19;;;;;;;10.85;2.25;;;11.00;99.90;;;;;;4879746;29;20199;-87
2022/11/02 06:35:52;;;;;;;14.13;2.63;;;11.00;99.90;;;;;;4884240;29;20043;-87
2022/11/02 06:38:18;;;;;;;16.80;2.08;;;10.90;99.90;;;;;;4881975;29;20047;-86
2022/11/02 06:40:52;;;;;;;13.43;1.88;;;11.00;99.90;;;;;;4884084;29;20055;-86
2022/11/02 06:43:18;;;;;;;11.75;1.55;;;11.00;99.90;;;;;;4896772;29;20045;-89
2022/11/02 06:45:43;;;;;;;13.25;2.50;;;11.00;99.90;;;;;;4897240;29;20059;-88
2022/11/02 06:48:09;;;;;;;13.48;2.35;;;11.00;99.90;;;;;;4875180;29;20052;-86
2022/11/02 06:50:35;;;;;;;9.98;1.55;;;11.10;99.90;;;;;;4876914;29;20384;-86
2022/11/02 06:53:00;;;;;;;10.57;1.98;;;11.10;99.90;;;;;;4876033;29;20050;-87
2022/11/02 06:55:26;;;;;;;12.80;1.88;;;11.10;99.90;;;;;;4891283;29;20040;-86
2022/11/02 07:01:23;;;;;;;11.55;2.47;;;11.20;99.90;;;;;;4911818;29;20802;-87
2022/11/02 07:03:49;;;;;;;19.17;4.10;;;11.30;99.90;;;;;;4899672;29;20040;-86
2022/11/02 07:06:14;;;;;;;11.18;2.22;;;11.30;99.90;;;;;;4900816;29;20040;-87
2022/11/02 07:08:41;;;;;;;18.83;5.35;;;11.30;99.90;;;;;;4910942;29;20051;-86
2022/11/02 07:11:06;;;;;;;11.40;1.83;;;11.40;99.90;;;;;;4878593;29;20040;-87
2022/11/02 07:13:52;;;;;;;12.45;1.92;;;11.40;99.90;;;;;;4887835;29;20406;-87
2022/11/02 07:17:18;;;;;;;15.57;3.10;;;11.80;99.90;;;;;;4891343;29;20048;-87
2022/11/02 07:23:37;;;;;;;16.67;2.90;;;11.30;99.90;;;;;;4868468;29;20053;-85
2022/11/02 07:26:05;;;;;;;9.50;1.45;;;11.30;99.90;;;;;;4861825;29;20048;-84
2022/11/02 07:28:31;;;;;;;13.63;2.22;;;11.20;99.90;;;;;;4893410;29;20151;-85
2022/11/02 07:30:57;;;;;;;11.20;1.65;;;11.60;99.90;;;;;;4891378;29;20044;-84
2022/11/02 07:33:22;;;;;;;12.45;1.83;;;11.20;99.90;;;;;;4887174;29;20095;-83
2022/11/02 07:35:51;;;;;;;15.40;2.47;;;11.20;99.90;;;;;;4864332;29;20515;-84
2022/11/02 07:38:23;;;;;;;10.70;1.67;;;11.20;99.90;;;;;;4858371;29;20037;-83
2022/11/02 07:40:49;;;;;;;12.40;1.85;;;11.20;99.90;;;;;;4866725;29;20055;-84
2022/11/02 07:43:15;;;;;;;14.10;1.52;;;11.20;99.90;;;;;;4873417;29;20067;-83
2022/11/02 07:45:41;;;;;;;11.98;2.20;;;11.20;99.90;;;;;;4886856;29;20175;-83
2022/11/02 07:48:06;;;;;;;9.63;1.50;;;11.20;99.90;;;;;;4883321;29;20044;-83
2022/11/02 07:50:35;;;;;;;12.23;1.77;;;11.20;99.90;;;;;;4899764;29;20036;-84
2022/11/02 07:53:04;;;;;;;11.02;1.50;;;11.20;99.90;;;;;;4870218;29;20050;-84
2022/11/02 07:55:30;;;;;;;11.35;1.92;;;11.30;99.90;;;;;;4884344;29;20070;-83
2022/11/02 07:58:13;;;;;;;11.48;1.63;;;11.30;99.90;;;;;;4890489;29;20491;-81
2022/11/02 08:00:40;;;;;;;9.90;1.40;;;11.40;99.90;;;;;;4881544;29;20052;-83
2022/11/02 08:03:07;;;;;;;7.68;1.35;;;10.80;99.90;;;;;;4888515;29;20047;-84
2022/11/02 08:05:35;;;;;;;13.02;2.22;;;11.30;99.90;;;;;;4873711;29;20502;-84
2022/11/02 08:08:10;;;;;;;8.95;2.10;;;11.40;99.90;;;;;;4883807;29;20044;-83
2022/11/02 08:10:35;;;;;;;19.43;3.40;;;11.40;99.90;;;;;;4872226;29;20062;-83
2022/11/02 08:13:02;;;;;;;12.25;2.00;;;11.40;99.90;;;;;;4876183;29;20079;-83
2022/11/02 08:15:27;;;;;;;10.95;2.97;;;11.40;99.90;;;;;;4872301;29;20051;-83
2022/11/02 08:18:08;;;;;;;9.10;1.45;;;11.50;99.90;;;;;;4887579;29;20104;-83
2022/11/02 08:20:35;;;;;;;11.93;1.33;;;11.60;99.90;;;;;;4871718;29;21717;-82
2022/11/02 08:23:00;;;;;;;7.85;1.67;;;11.60;99.90;;;;;;4889631;29;20047;-83
2022/11/02 08:25:26;;;;;;;18.05;1.60;;;11.60;99.90;;;;;;4897994;29;20048;-83
2022/11/02 08:27:58;;;;;;;11.45;1.13;;;11.70;99.90;;;;;;4872639;29;20083;-82
2022/11/02 08:30:24;;;;;;;5.43;0.90;;;11.70;99.90;;;;;;4870410;29;20044;-83
2022/11/02 08:32:49;;;;;;;9.77;1.38;;;11.70;99.90;;;;;;4886726;29;20213;-83
2022/11/02 08:35:15;;;;;;;7.70;1.05;;;11.70;99.90;;;;;;4870414;29;20032;-83
2022/11/02 08:37:40;;;;;;;7.13;1.52;;;11.70;99.90;;;;;;4871375;29;20108;-83
2022/11/02 08:40:07;;;;;;;4.82;0.60;;;11.70;99.90;;;;;;4884671;29;20486;-83
2022/11/02 08:42:32;;;;;;;8.57;1.25;;;11.80;99.90;;;;;;4889373;29;20040;-83
2022/11/02 08:44:58;;;;;;;4.88;0.77;;;11.80;99.90;;;;;;4872133;29;20755;-83
2022/11/02 08:47:23;;;;;;;6.10;0.93;;;11.90;99.90;;;;;;4871451;29;21374;-83
2022/11/02 08:50:48;;;;;;;6.78;1.10;;;11.90;99.90;;;;;;4884221;29;20047;-83
2022/11/02 09:11:46;;;;;;;5.45;1.15;;;12.30;99.90;;;;;;4904503;29;20663;-83
2022/11/02 09:14:24;;;;;;;5.60;1.08;;;12.30;99.90;;;;;;4890332;29;20048;-83
2022/11/02 19:42:34;;;;;;;13.93;2.28;;;11.10;99.90;;;;;;4904388;29;20056;-84
2022/11/02 19:45:18;;;;;;;9.95;1.77;;;11.00;99.90;;;;;;4889403;29;20044;-85
2022/11/02 19:47:44;;;;;;;16.35;2.15;;;11.00;99.90;;;;;;4895910;29;20063;-85
2022/11/02 19:50:13;;;;;;;16.27;3.50;;;11.00;99.90;;;;;;4891360;29;20123;-87
2022/11/02 19:52:38;;;;;;;27.13;2.78;;;11.00;99.90;;;;;;4886166;29;20055;-86
2022/11/02 19:55:04;;;;;;;11.60;2.13;;;11.00;99.90;;;;;;4890602;29;20044;-86
2022/11/02 19:57:30;;;;;;;13.50;2.10;;;11.00;99.90;;;;;;4892490;29;20512;-86
2022/11/02 20:00:01;;;;;;;10.82;1.90;;;11.00;99.90;;;;;;4891422;29;20075;-86
2022/11/02 20:02:27;;;;;;;14.00;2.95;;;11.00;99.90;;;;;;4893496;29;20051;-86
2022/11/02 20:04:52;;;;;;;15.02;2.72;;;11.00;99.90;;;;;;4879596;29;20395;-86
2022/11/02 20:07:19;;;;;;;14.02;2.13;;;11.00;99.90;;;;;;4889528;29;20047;-86
2022/11/02 20:09:44;;;;;;;10.90;1.67;;;11.00;99.90;;;;;;4892168;29;20052;-85
2022/11/02 20:12:10;;;;;;;13.00;2.28;;;11.00;99.90;;;;;;4874931;29;20046;-86
2022/11/02 20:14:37;;;;;;;15.40;2.47;;;11.00;99.90;;;;;;4888992;29;20143;-86
2022/11/02 20:17:09;;;;;;;11.88;2.00;;;10.90;99.90;;;;;;4875301;29;20040;-87
2022/11/02 20:19:37;;;;;;;10.93;2.22;;;11.00;99.90;;;;;;4891593;29;20056;-85
2022/11/02 20:22:03;;;;;;;11.68;2.05;;;11.00;99.90;;;;;;4872217;29;21780;-85
2022/11/02 20:24:28;;;;;;;14.82;2.35;;;11.00;99.90;;;;;;4884748;29;20244;-86
2022/11/02 20:27:00;;;;;;;7.35;1.50;;;11.10;99.90;;;;;;4875158;29;20047;-86
2022/11/02 20:29:25;;;;;;;10.25;2.25;;;11.00;99.90;;;;;;4889576;29;20047;-86
2022/11/02 20:31:55;;;;;;;14.60;2.13;;;11.00;99.90;;;;;;4888531;29;20059;-86
2022/11/02 20:34:39;;;;;;;14.55;2.72;;;11.10;99.90;;;;;;4880008;29;20114;-86
2022/11/02 20:37:06;;;;;;;17.63;2.35;;;11.10;99.90;;;;;;4888881;29;20056;-85
2022/11/02 20:39:31;;;;;;;9.93;2.63;;;11.00;99.90;;;;;;4885936;29;20067;-85
2022/11/02 20:41:57;;;;;;;14.73;1.90;;;11.10;99.90;;;;;;4874530;29;20899;-87
2022/11/02 20:44:23;;;;;;;10.23;2.20;;;11.10;99.90;;;;;;4889450;29;20036;-86
2022/11/02 20:46:50;;;;;;;6.07;1.35;;;11.10;99.90;;;;;;4875279;29;20190;-86
2022/11/02 20:49:16;;;;;;;10.63;2.00;;;11.10;99.90;;;;;;4872573;29;20116;-85
2022/11/02 20:51:41;;;;;;;11.55;2.58;;;11.10;99.90;;;;;;4886291;29;20535;-86
2022/11/02 20:54:07;;;;;;;10.52;2.35;;;11.10;99.90;;;;;;4888853;29;20044;-86
2022/11/02 20:56:33;;;;;;;13.93;2.78;;;11.10;99.90;;;;;;4883506;29;20079;-86
2022/11/02 20:59:13;;;;;;;12.88;2.00;;;11.10;99.90;;;;;;4884279;29;20062;-86
2022/11/02 21:01:39;;;;;;;8.75;1.50;;;11.20;99.90;;;;;;4861424;29;20100;-86
2022/11/02 21:04:04;;;;;;;10.85;1.50;;;11.20;99.90;;;;;;4889021;29;20504;-85
2022/11/02 21:10:18;;;;;;;14.57;3.13;;;11.10;99.90;;;;;;4888681;29;20790;-86
2022/11/02 21:16:28;;;;;;;9.80;2.20;;;11.30;99.90;;;;;;4887967;29;20123;-87
2022/11/02 21:19:16;;;;;;;13.13;2.33;;;11.30;99.90;;;;;;4870024;29;20043;-87
2022/11/02 21:21:54;;;;;;;9.23;1.25;;;11.20;99.90;;;;;;4886912;29;20036;-87
2022/11/02 21:24:40;;;;;;;8.98;2.13;;;11.10;99.90;;;;;;4875842;29;20044;-86
2022/11/02 21:27:22;;;;;;;9.98;1.42;;;11.20;99.90;;;;;;4906881;29;20456;-86
2022/11/02 21:30:00;;;;;;;11.55;1.95;;;11.20;99.90;;;;;;4874803;29;20060;-86
2022/11/02 21:32:43;;;;;;;12.23;2.28;;;11.30;99.90;;;;;;4877104;29;20115;-86
2022/11/02 21:35:09;;;;;;;14.77;1.98;;;11.20;99.90;;;;;;4877516;29;20059;-86
2022/11/02 21:37:35;;;;;;;14.90;2.65;;;11.20;99.90;;;;;;4875945;29;20052;-86
2022/11/02 21:40:02;;;;;;;9.65;1.98;;;11.20;99.90;;;;;;4889727;29;20059;-87
2022/11/02 21:42:29;;;;;;;13.95;2.00;;;11.30;99.90;;;;;;4877123;29;20036;-86
2022/11/02 21:45:02;;;;;;;12.13;2.35;;;11.20;99.90;;;;;;4874675;29;20040;-86
2022/11/02 21:47:33;;;;;;;10.65;1.67;;;11.30;99.90;;;;;;4911259;29;20040;-86
2022/11/02 21:50:06;;;;;;;10.32;2.45;;;12.30;99.90;;;;;;4906032;29;20084;-86
2022/11/02 21:52:36;;;;;;;11.40;2.20;;;11.20;99.90;;;;;;4885777;29;20036;-87
2022/11/02 21:55:03;;;;;;;10.80;1.98;;;11.20;99.90;;;;;;4886915;29;20663;-86
2022/11/02 21:57:28;;;;;;;11.75;2.03;;;11.20;99.90;;;;;;4876629;29;20051;-86
2022/11/02 21:59:55;;;;;;;13.23;2.05;;;11.20;99.90;;;;;;4877819;29;20044;-86
2022/11/02 22:02:21;;;;;;;10.43;2.50;;;11.20;99.90;;;;;;4872877;29;20068;-86
2022/11/02 22:04:52;;;;;;;9.63;1.60;;;11.20;99.90;;;;;;4886346;29;20127;-86
2022/11/02 22:07:22;;;;;;;9.98;1.83;;;11.20;99.90;;;;;;4875784;29;20403;-86
2022/11/02 22:09:51;;;;;;;10.30;1.42;;;11.20;99.90;;;;;;4878442;29;20055;-86
2022/11/02 22:15:11;;;;;;;9.52;1.77;;;11.10;99.90;;;;;;4895324;29;20056;-86
2022/11/02 22:17:37;;;;;;;10.75;1.92;;;11.10;99.90;;;;;;4879089;29;20110;-86
2022/11/02 22:20:22;;;;;;;9.60;2.47;;;11.10;99.90;;;;;;4908761;29;20890;-86
2022/11/02 22:23:14;;;;;;;12.05;2.08;;;11.10;99.90;;;;;;4876959;29;20768;-86
2022/11/02 22:25:44;;;;;;;12.93;2.05;;;11.10;99.90;;;;;;4861783;29;20056;-86
2022/11/02 22:28:19;;;;;;;9.05;2.15;;;11.10;99.90;;;;;;4861816;29;20048;-86
2022/11/02 22:30:45;;;;;;;8.82;1.45;;;11.10;99.90;;;;;;4860284;29;20123;-86
2022/11/02 22:40:04;;;;;;;12.73;1.90;;;11.10;99.90;;;;;;4908238;29;20064;-86
2022/11/02 22:42:30;;;;;;;11.20;2.22;;;11.00;99.90;;;;;;4896926;29;20048;-86
2022/11/02 22:44:59;;;;;;;11.38;2.20;;;11.00;99.90;;;;;;4887926;29;20139;-86
2022/11/02 22:47:45;;;;;;;10.45;2.08;;;11.00;99.90;;;;;;4897682;29;20044;-86
2022/11/02 22:50:11;;;;;;;13.20;3.08;;;11.00;99.90;;;;;;4887359;29;20032;-86
2022/11/02 22:52:37;;;;;;;13.02;2.17;;;11.00;99.90;;;;;;4891613;29;20051;-86
2022/11/02 22:55:03;;;;;;;18.58;2.30;;;11.00;99.90;;;;;;4904633;29;20068;-87
2022/11/02 22:57:28;;;;;;;6.57;1.65;;;11.00;99.90;;;;;;4878696;29;20123;-86
2022/11/02 22:59:54;;;;;;;7.20;2.10;;;11.00;99.90;;;;;;4893169;29;20126;-86
2022/11/02 23:02:19;;;;;;;16.88;2.58;;;11.00;99.90;;;;;;4879340;29;20056;-86
2022/11/02 23:04:45;;;;;;;10.70;1.88;;;11.30;99.90;;;;;;4895366;29;20044;-86
2022/11/02 23:07:10;;;;;;;14.35;1.92;;;11.00;99.90;;;;;;4892620;29;20056;-86
2022/11/02 23:09:36;;;;;;;12.52;2.30;;;11.00;99.90;;;;;;4891741;29;20083;-86
2022/11/02 23:12:02;;;;;;;12.50;2.25;;;11.10;99.90;;;;;;4894051;29;20123;-86
2022/11/02 23:14:27;;;;;;;8.57;1.50;;;11.10;99.90;;;;;;4877083;29;20083;-86
2022/11/02 23:16:53;;;;;;;10.85;2.05;;;11.10;99.90;;;;;;4910341;29;20498;-86
2022/11/02 23:19:29;;;;;;;9.45;2.08;;;11.10;99.90;;;;;;4908406;29;20496;-86
2022/11/02 23:25:10;;;;;;;11.57;2.40;;;11.10;99.90;;;;;;4893822;29;20048;-87
2022/11/02 23:33:27;;;;;;;15.50;2.47;;;11.10;99.90;;;;;;4906100;29;20139;-85
2022/11/02 23:36:12;;;;;;;12.27;2.38;;;11.00;99.90;;;;;;4891359;29;20468;-86
2022/11/02 23:41:30;;;;;;;11.52;1.80;;;11.00;99.90;;;;;;4895542;29;20058;-86
2022/11/02 23:44:11;;;;;;;9.68;2.08;;;11.40;99.90;;;;;;4880450;29;20036;-86
2022/11/02 23:46:54;;;;;;;9.23;1.83;;;11.10;99.90;;;;;;4892623;29;20108;-87
2022/11/02 23:49:23;;;;;;;9.27;2.17;;;11.10;99.90;;;;;;4879369;29;20048;-86
2022/11/02 23:57:21;;;;;;;12.00;3.10;;;11.30;99.90;;;;;;4875605;29;20044;-86
2022/11/02 23:59:47;;;;;;;16.17;1.92;;;11.10;99.90;;;;;;4881396;29;20056;-86
